LRSV/SCV METAR and TAF weather

Enter ICAO airport designator
Station Type Date Time Source
LRSV METAR 2023/06/01 08:00 UTC NOAA

LRSV 010800Z VRB02KT CAVOK 23/09 Q1018


Station Type Date Time Source
LRSV Decoded METAR 2023/06/01 08:00 UTC NOAA

Suceava / Salcea, Romania (LRSV) 47-39N 026-15E 351M
Jun 01, 2023 - 04:00 AM EDT / 2023.06.01 0800 UTC
Wind: Variable at 2 MPH (2 KT):0
Visibility: greater than 7 mile(s):0
Temperature: 73 F (23 C)
Dew Point: 48 F (9 C)
Relative Humidity: 40%
Pressure (altimeter): 30.06 in. Hg (1018 hPa)
ob: LRSV 010800Z VRB02KT CAVOK 23/09 Q1018
cycle: 8

Station Type Date Time Source
LRSV TAF 2014/07/19 18:48 UTC NOAA

TAF LRSV 191800Z 1918/2024 CNL

Example: see airport list